LiveATC.Net - Listen to live air traffic control over the Internet!


ICAO: LSZB  IATA: BRN   Airport: Bern-Belp Airport
City: Bern
Country: Switzerland   Continent: Europe
LSZB METAR Weather: LSZB 240950Z VRB03KT 9999 FEW020 21/16 Q1022 NOSIG
LSZB Flight Activity (FlightAware)
LSZB Webcam:  (Airport Webcams) 

LSZB Tower/App/Dep
Feed Status: DOWN
Last heard on: 2019-08-24 08:56:39 (0 days 1 hours 28 minutes ago)
LSZB Tower/App/Dep Audio Archives
FacilityFrequency
LSZB Arrival/Departure (left channel)127.325
LSZB Tower (right channel)121.025

NOTICE

Unauthorized use prohibited. See LiveATC.net Terms of Service


Airport/ARTCC Code
Frequency Search
(e.g., 124.400, 128.75)
Site-wide search
 


Browse LiveATC Feeds
Top 50 LiveATC Feeds
LiveATC Feed Map
Bad Weather Areas

LiveATC FAQ
Offer LiveATC feed
Contact LiveATC.net
Press Inquiries

LiveATC on iPhone
LiveATC on Android

Windows Phone
Windows 8/10

LiveATC Mobile
(Mobile browser)

ATC Audio Archives
Interesting Recordings

LiveATC Forums


Home Page
About LiveATC.net
Make a Donation
Terms of Use
Privacy Policy

Canadian Air Freqs

AIRMETs/SIGMETs

FAA Airport Status
Nat'l Airspace Status
Arrival Demand Charts


Server Software By:
Icecast.org
Liquidsoap